Time;durP1;ratioP1;P1;durP2;ratioP2;P2;SDS_P1;SDS_P2;PMS_P1;PMS_P2;Temp;Humidity;BMP_temperature;BMP_pressure;BME280_temperature;BME280_humidity;BME280_pressure;Samples;Min_cycle;Max_cycle;Signal;HPM_P1;HPM_P2
2021/08/11 00:00:22;;;;;;;20.90;8.15;;;640.90;1920.00;;;;;;5116976;28;20381;-81
2021/08/11 00:02:47;;;;;;;13.35;7.80;;;640.80;1920.00;;;;;;5117863;27;20027;-80
2021/08/11 00:05:13;;;;;;;15.88;8.77;;;640.70;1920.00;;;;;;5116666;28;20054;-80
2021/08/11 00:07:39;;;;;;;16.40;7.65;;;640.80;1920.00;;;;;;5113813;28;20020;-79
2021/08/11 00:10:06;;;;;;;18.55;6.95;;;640.90;1920.00;;;;;;5116808;28;20020;-80
2021/08/11 00:12:32;;;;;;;12.73;8.07;;;640.90;1920.00;;;;;;5098430;28;20101;-82
2021/08/11 00:14:58;;;;;;;13.05;7.57;;;640.60;1945.60;;;;;;5116365;28;20030;-79
2021/08/11 00:17:24;;;;;;;22.45;9.52;;;640.50;1945.60;;;;;;5116668;28;20016;-81
2021/08/11 00:19:50;;;;;;;15.00;9.10;;;640.50;1945.60;;;;;;5116169;28;20070;-82
2021/08/11 00:22:15;;;;;;;24.50;11.32;;;640.50;1945.60;;;;;;5116653;28;20057;-83
2021/08/11 00:24:41;;;;;;;16.45;9.85;;;640.50;1971.20;;;;;;5126049;27;20047;-82
2021/08/11 00:27:07;;;;;;;13.02;8.85;;;640.70;1920.00;;;;;;5137872;27;20040;-82
2021/08/11 00:29:33;;;;;;;19.58;10.23;;;640.60;1945.60;;;;;;5137474;27;20023;-83
2021/08/11 00:31:59;;;;;;;14.27;9.55;;;640.30;1945.60;;;;;;5135442;27;20019;-82
2021/08/11 00:34:24;;;;;;;26.42;8.65;;;640.30;1945.60;;;;;;5153838;27;20030;-81
2021/08/11 00:36:50;;;;;;;21.48;7.82;;;640.00;1971.20;;;;;;5158305;27;20027;-78
2021/08/11 00:39:16;;;;;;;14.07;8.55;;;615.30;1971.20;;;;;;5158405;27;20042;-82
2021/08/11 00:41:44;;;;;;;14.88;9.88;;;615.20;1996.80;;;;;;5141735;27;20035;-81
2021/08/11 00:44:13;;;;;;;17.10;9.13;;;615.20;1996.80;;;;;;5136969;27;20023;-76
2021/08/11 00:46:41;;;;;;;15.75;9.13;;;615.20;1996.80;;;;;;5133837;27;20507;-83
2021/08/11 00:49:10;;;;;;;17.02;9.10;;;615.30;1996.80;;;;;;5136551;27;20461;-84
2021/08/11 00:51:36;;;;;;;15.90;8.98;;;615.20;1971.20;;;;;;5118423;27;20502;-81
2021/08/11 00:54:05;;;;;;;17.10;9.82;;;615.30;1945.60;;;;;;5136315;27;20171;-76
2021/08/11 00:56:31;;;;;;;16.27;9.85;;;640.00;1971.20;;;;;;5136172;27;20019;-80
2021/08/11 00:58:58;;;;;;;14.02;8.88;;;615.30;1971.20;;;;;;5117323;27;20152;-79
2021/08/11 01:01:25;;;;;;;22.33;10.18;;;615.10;1996.80;;;;;;5136259;27;20023;-80
2021/08/11 01:03:54;;;;;;;18.73;9.45;;;615.10;1996.80;;;;;;5136668;27;20476;-75
2021/08/11 01:06:22;;;;;;;18.60;9.57;;;615.00;1996.80;;;;;;5136866;27;20020;-78
2021/08/11 01:08:47;;;;;;;20.17;9.85;;;615.00;1996.80;;;;;;5136548;27;20055;-84
2021/08/11 01:11:14;;;;;;;19.08;10.73;;;615.00;2022.40;;;;;;5136118;27;20577;-82
2021/08/11 01:13:42;;;;;;;17.83;9.60;;;615.00;1996.80;;;;;;5137039;27;20502;-83
2021/08/11 01:16:08;;;;;;;15.65;9.57;;;615.00;2022.40;;;;;;5136574;27;20047;-83
2021/08/11 01:18:34;;;;;;;13.77;8.77;;;614.90;2022.40;;;;;;5136472;27;20426;-78
2021/08/11 01:21:06;;;;;;;21.13;9.90;;;614.80;2022.40;;;;;;5136553;27;20027;-74
2021/08/11 01:24:01;;;;;;;22.02;10.65;;;614.60;2048.00;;;;;;5136607;27;20102;-75
2021/08/11 01:27:03;;;;;;;16.10;9.55;;;614.50;2073.60;;;;;;5053452;28;20047;-86
2021/08/11 01:29:56;;;;;;;17.50;9.48;;;589.70;2073.60;;;;;;5053459;28;20029;-83
2021/08/11 01:32:52;;;;;;;20.42;9.82;;;589.70;2073.60;;;;;;5053502;28;20029;-82
2021/08/11 01:35:21;;;;;;;16.47;9.50;;;614.40;2073.60;;;;;;5053451;28;20060;-78
2021/08/11 01:37:53;;;;;;;18.58;9.38;;;614.40;2048.00;;;;;;5053557;28;20281;-85
2021/08/11 01:40:23;;;;;;;21.60;10.10;;;614.50;2048.00;;;;;;5053395;28;20102;-82
2021/08/11 01:42:51;;;;;;;18.38;9.70;;;614.50;2048.00;;;;;;5037160;28;20127;-84
2021/08/11 01:45:21;;;;;;;15.88;8.75;;;614.60;2022.40;;;;;;5046194;28;20032;-83
2021/08/11 01:48:10;;;;;;;15.85;8.95;;;614.60;1996.80;;;;;;5033159;28;20033;-83
2021/08/11 01:50:38;;;;;;;10.82;8.05;;;614.70;1971.20;;;;;;5044143;28;20120;-78
2021/08/11 01:53:12;;;;;;;14.98;7.82;;;614.70;1920.00;;;;;;5052952;28;20029;-83
2021/08/11 01:55:38;;;;;;;17.95;8.48;;;614.80;1868.80;;;;;;5052934;28;20086;-77
2021/08/11 01:58:05;;;;;;;13.98;8.25;;;614.70;1868.80;;;;;;5049253;28;20021;-82
2021/08/11 02:00:32;;;;;;;10.18;7.38;;;614.80;1843.20;;;;;;5033005;28;20037;-78
2021/08/11 02:02:59;;;;;;;13.20;6.88;;;614.80;1843.20;;;;;;5063868;28;20389;-85
2021/08/11 02:05:31;;;;;;;14.68;7.72;;;615.00;1817.60;;;;;;5133841;27;20015;-85
2021/08/11 02:07:58;;;;;;;15.73;6.68;;;614.70;1817.60;;;;;;5135621;27;20015;-83
2021/08/11 02:10:24;;;;;;;12.70;7.00;;;614.70;1817.60;;;;;;5135785;27;20057;-85
2021/08/11 02:12:50;;;;;;;12.82;7.45;;;614.80;1817.60;;;;;;5135368;27;20023;-84
2021/08/11 02:15:15;;;;;;;18.17;8.25;;;614.80;1817.60;;;;;;5135355;27;20046;-78
2021/08/11 02:17:41;;;;;;;12.40;8.05;;;614.80;1817.60;;;;;;5135441;27;20040;-82
2021/08/11 02:20:09;;;;;;;11.90;7.18;;;614.80;1817.60;;;;;;5135086;27;20473;-77
2021/08/11 02:22:36;;;;;;;13.30;7.60;;;614.70;1817.60;;;;;;5134312;27;20110;-84
2021/08/11 02:25:07;;;;;;;16.35;7.50;;;614.80;1868.80;;;;;;5116806;27;20051;-81
2021/08/11 02:27:39;;;;;;;15.30;7.47;;;614.80;1817.60;;;;;;5135134;27;20051;-81
2021/08/11 02:30:10;;;;;;;15.13;7.28;;;614.70;1817.60;;;;;;5135383;27;20072;-84
2021/08/11 02:32:42;;;;;;;13.48;7.57;;;614.60;1843.20;;;;;;5135401;27;20030;-84
2021/08/11 02:35:23;;;;;;;15.35;8.02;;;614.60;1843.20;;;;;;5135087;27;20062;-77
2021/08/11 02:38:12;;;;;;;15.27;8.35;;;614.70;1843.20;;;;;;5135268;27;20022;-83
2021/08/11 02:40:56;;;;;;;11.85;7.75;;;614.60;1843.20;;;;;;5135085;27;20076;-78
2021/08/11 02:43:24;;;;;;;11.80;8.40;;;614.60;1843.20;;;;;;5135049;27;20019;-84
2021/08/11 02:45:59;;;;;;;11.30;7.22;;;614.60;1843.20;;;;;;5134971;27;20027;-85
2021/08/11 02:48:27;;;;;;;20.03;7.53;;;614.60;1843.20;;;;;;5115449;27;20027;-84
2021/08/11 02:50:53;;;;;;;11.63;7.70;;;614.60;1817.60;;;;;;5134702;27;20263;-83
2021/08/11 02:53:22;;;;;;;14.90;7.82;;;614.60;1817.60;;;;;;5134734;27;20038;-76
2021/08/11 02:55:49;;;;;;;12.85;7.53;;;614.70;1817.60;;;;;;5134774;27;20022;-82
2021/08/11 02:58:18;;;;;;;14.90;7.95;;;614.70;1792.00;;;;;;5134911;27;20102;-83
2021/08/11 03:00:46;;;;;;;10.55;6.95;;;614.70;1792.00;;;;;;5134582;27;20027;-76
2021/08/11 03:03:13;;;;;;;13.60;8.82;;;614.60;1792.00;;;;;;5134609;27;20020;-82
2021/08/11 03:05:39;;;;;;;14.15;7.80;;;614.60;1817.60;;;;;;5134628;27;20022;-75
2021/08/11 03:08:07;;;;;;;13.05;7.57;;;614.60;1817.60;;;;;;5134540;27;20042;-82
2021/08/11 03:10:33;;;;;;;12.60;8.57;;;614.80;1792.00;;;;;;5115799;27;20035;-84
2021/08/11 03:12:59;;;;;;;13.23;8.30;;;614.70;1792.00;;;;;;5134626;27;20027;-76
2021/08/11 03:15:29;;;;;;;10.55;7.70;;;614.70;1792.00;;;;;;5134605;27;20473;-84
2021/08/11 03:17:54;;;;;;;13.15;8.63;;;614.60;1817.60;;;;;;5134749;27;20043;-84
2021/08/11 03:20:21;;;;;;;13.63;8.05;;;614.50;1817.60;;;;;;5134674;27;20043;-86
2021/08/11 03:22:46;;;;;;;13.27;7.28;;;614.60;1817.60;;;;;;5134647;27;20473;-84
2021/08/11 03:25:12;;;;;;;10.93;7.35;;;614.70;1817.60;;;;;;5134534;27;20074;-85
2021/08/11 03:27:38;;;;;;;12.95;8.63;;;614.60;1817.60;;;;;;5134627;27;20099;-86
2021/08/11 03:30:04;;;;;;;17.60;8.82;;;614.60;1817.60;;;;;;5134442;27;20015;-85
2021/08/11 03:32:30;;;;;;;14.00;8.43;;;614.50;1817.60;;;;;;5133931;27;20030;-85
2021/08/11 03:34:56;;;;;;;13.95;8.52;;;614.40;1817.60;;;;;;5134708;28;20468;-86
2021/08/11 03:37:22;;;;;;;20.60;9.13;;;614.60;1817.60;;;;;;5134446;28;20095;-86
2021/08/11 03:39:47;;;;;;;15.68;8.32;;;614.60;1817.60;;;;;;5134509;27;20031;-85
2021/08/11 03:42:13;;;;;;;16.15;8.77;;;614.60;1817.60;;;;;;5134585;28;20597;-84
2021/08/11 03:44:39;;;;;;;15.30;8.88;;;614.60;1817.60;;;;;;5134321;28;20023;-78
2021/08/11 03:47:05;;;;;;;14.80;8.05;;;614.60;1817.60;;;;;;5115942;28;20024;-83
2021/08/11 03:49:31;;;;;;;11.85;7.80;;;614.60;1817.60;;;;;;5131075;28;20028;-76
2021/08/11 03:51:57;;;;;;;12.60;7.50;;;614.50;1817.60;;;;;;5115743;28;20015;-82
2021/08/11 03:54:22;;;;;;;16.35;8.27;;;614.40;1843.20;;;;;;5134283;28;20404;-82
2021/08/11 03:56:48;;;;;;;14.48;7.88;;;614.60;1817.60;;;;;;5134158;28;20027;-84
2021/08/11 03:59:14;;;;;;;12.65;7.97;;;614.50;1817.60;;;;;;5133927;28;20027;-84
2021/08/11 04:01:39;;;;;;;13.27;7.90;;;614.50;1843.20;;;;;;5134313;28;20023;-84
2021/08/11 04:04:05;;;;;;;12.93;8.52;;;614.40;1843.20;;;;;;5134044;27;20500;-83
2021/08/11 04:06:31;;;;;;;14.65;7.97;;;614.50;1843.20;;;;;;5134239;28;20023;-77
2021/08/11 04:08:57;;;;;;;12.02;7.97;;;614.50;1843.20;;;;;;5134050;28;20019;-83
2021/08/11 04:11:23;;;;;;;13.45;8.02;;;614.40;1843.20;;;;;;5134128;27;20028;-85
2021/08/11 04:13:48;;;;;;;14.93;7.50;;;614.40;1843.20;;;;;;5133857;28;20023;-82
2021/08/11 04:16:14;;;;;;;13.63;8.57;;;614.40;1843.20;;;;;;5134205;28;20064;-83
2021/08/11 04:18:40;;;;;;;15.90;8.23;;;614.40;1843.20;;;;;;5095193;28;20096;-77
2021/08/11 04:21:06;;;;;;;9.85;6.85;;;614.50;1843.20;;;;;;5128783;28;20027;-80
2021/08/11 04:23:32;;;;;;;11.77;7.70;;;614.40;1868.80;;;;;;5133742;27;20046;-80
2021/08/11 04:25:58;;;;;;;19.20;8.60;;;589.70;1843.20;;;;;;5133937;28;20029;-85
2021/08/11 04:28:25;;;;;;;12.85;7.72;;;614.60;1868.80;;;;;;5133729;28;20015;-80
2021/08/11 04:30:52;;;;;;;14.48;7.95;;;614.50;1868.80;;;;;;5133564;28;20019;-81
2021/08/11 04:33:18;;;;;;;16.42;7.68;;;614.70;1868.80;;;;;;5133540;28;20484;-77
2021/08/11 04:35:44;;;;;;;13.07;7.68;;;614.50;1868.80;;;;;;5133461;28;20015;-80
2021/08/11 04:38:10;;;;;;;16.13;8.05;;;614.40;1843.20;;;;;;5133184;28;20030;-85
2021/08/11 04:40:37;;;;;;;12.73;7.63;;;614.60;1868.80;;;;;;5134029;28;20031;-85
2021/08/11 04:43:04;;;;;;;17.13;8.45;;;614.60;1868.80;;;;;;5133903;28;20023;-77
2021/08/11 04:45:31;;;;;;;13.50;7.25;;;614.80;1843.20;;;;;;5135657;27;20440;-76
2021/08/11 04:47:57;;;;;;;17.52;8.35;;;614.90;1843.20;;;;;;5137139;27;20031;-81
2021/08/11 04:50:23;;;;;;;13.30;7.72;;;615.10;1817.60;;;;;;5137190;27;20110;-83
2021/08/11 04:52:48;;;;;;;14.13;6.82;;;615.10;1817.60;;;;;;5136929;27;20165;-82
2021/08/11 04:55:14;;;;;;;17.20;7.47;;;615.10;1817.60;;;;;;5118777;27;20023;-82
2021/08/11 04:57:40;;;;;;;14.80;8.10;;;615.00;1843.20;;;;;;5128534;27;20019;-83
2021/08/11 05:00:07;;;;;;;15.60;8.00;;;615.10;1817.60;;;;;;5136973;27;20031;-84
2021/08/11 05:02:33;;;;;;;15.52;8.05;;;615.10;1817.60;;;;;;5136981;27;20030;-80
2021/08/11 05:04:59;;;;;;;14.23;7.60;;;615.20;1817.60;;;;;;5136847;27;20023;-82
2021/08/11 05:07:26;;;;;;;20.40;13.40;;;640.00;1817.60;;;;;;5129405;27;20438;-75
2021/08/11 05:09:52;;;;;;;18.77;10.30;;;640.00;1792.00;;;;;;5133533;27;20024;-80
2021/08/11 05:12:18;;;;;;;13.30;8.32;;;640.10;1817.60;;;;;;5136235;27;20019;-81
2021/08/11 05:14:44;;;;;;;12.35;8.45;;;640.20;1817.60;;;;;;5135913;27;20027;-81
2021/08/11 05:17:10;;;;;;;17.23;8.30;;;640.20;1792.00;;;;;;5136020;27;20030;-80
2021/08/11 05:19:36;;;;;;;17.00;8.23;;;640.20;1792.00;;;;;;5117387;27;20392;-76
2021/08/11 05:22:02;;;;;;;10.80;7.78;;;640.20;1792.00;;;;;;5135957;27;20503;-78
2021/08/11 05:24:28;;;;;;;11.23;7.25;;;640.30;1792.00;;;;;;5135819;27;20122;-78
2021/08/11 05:26:54;;;;;;;11.63;7.15;;;640.50;1792.00;;;;;;5136146;27;20098;-78
2021/08/11 05:29:20;;;;;;;10.57;8.00;;;640.50;1792.00;;;;;;5135058;27;20106;-77
2021/08/11 05:31:46;;;;;;;13.30;8.15;;;640.60;1817.60;;;;;;5135291;27;20034;-77
2021/08/11 05:34:12;;;;;;;14.85;8.23;;;640.60;1817.60;;;;;;5135295;27;20050;-77
2021/08/11 05:36:38;;;;;;;11.80;8.05;;;640.70;1792.00;;;;;;5135259;27;20050;-75
2021/08/11 05:39:04;;;;;;;9.98;7.55;;;640.70;1817.60;;;;;;5135075;27;20426;-78
2021/08/11 05:41:30;;;;;;;10.73;6.80;;;640.90;1792.00;;;;;;5135122;27;20502;-76
2021/08/11 05:43:56;;;;;;;14.73;8.65;;;640.90;1792.00;;;;;;5134992;27;20049;-79
2021/08/11 05:46:21;;;;;;;16.83;9.23;;;640.90;1817.60;;;;;;5135125;27;20019;-77
2021/08/11 05:48:47;;;;;;;15.48;8.40;;;665.60;1817.60;;;;;;5135650;27;20020;-79
2021/08/11 05:51:13;;;;;;;13.15;8.25;;;665.60;1817.60;;;;;;5135580;27;20515;-75
2021/08/11 05:53:40;;;;;;;19.15;9.65;;;665.60;1817.60;;;;;;5135368;27;20018;-74
2021/08/11 05:56:06;;;;;;;15.48;9.48;;;665.70;1843.20;;;;;;5135708;27;20030;-82
2021/08/11 05:58:32;;;;;;;16.27;9.32;;;665.70;1868.80;;;;;;5135819;27;20099;-75
2021/08/11 06:00:58;;;;;;;16.98;8.98;;;665.90;1843.20;;;;;;5135478;27;20019;-75
2021/08/11 06:03:24;;;;;;;14.23;8.48;;;666.00;1843.20;;;;;;5134466;27;20384;-80
2021/08/11 06:05:49;;;;;;;16.08;7.53;;;666.00;1843.20;;;;;;5135529;27;20087;-75
2021/08/11 06:08:15;;;;;;;12.73;9.45;;;666.10;1843.20;;;;;;5135600;27;20023;-80
2021/08/11 06:10:41;;;;;;;15.13;7.55;;;666.20;1817.60;;;;;;5135359;27;20027;-83
2021/08/11 06:13:07;;;;;;;14.13;10.65;;;666.30;1817.60;;;;;;5135698;27;20429;-84
2021/08/11 06:15:33;;;;;;;13.57;7.40;;;666.30;1843.20;;;;;;5135367;27;20027;-75
2021/08/11 06:17:59;;;;;;;14.48;7.43;;;666.50;1817.60;;;;;;5135079;27;20087;-78
2021/08/11 06:20:25;;;;;;;14.05;7.85;;;666.50;1843.20;;;;;;5134752;27;20035;-75
2021/08/11 06:22:51;;;;;;;14.13;7.90;;;666.50;1843.20;;;;;;5134676;27;20032;-78
2021/08/11 06:25:18;;;;;;;18.23;7.82;;;691.20;1817.60;;;;;;5151917;27;20043;-78
2021/08/11 06:27:44;;;;;;;11.93;8.15;;;691.20;1817.60;;;;;;5155521;27;20096;-75
2021/08/11 06:30:11;;;;;;;13.02;7.72;;;691.40;1792.00;;;;;;5155208;27;20396;-74
2021/08/11 06:32:37;;;;;;;16.52;12.35;;;691.50;1766.40;;;;;;5155397;27;20026;-74
2021/08/11 06:35:04;;;;;;;17.48;10.35;;;691.70;1792.00;;;;;;5155351;27;20014;-78
2021/08/11 06:37:30;;;;;;;18.35;12.13;;;691.70;1766.40;;;;;;5155168;27;20026;-77
2021/08/11 06:39:55;;;;;;;14.68;8.02;;;691.80;1766.40;;;;;;5155307;27;20034;-74
2021/08/11 06:42:21;;;;;;;17.58;11.88;;;691.90;1740.80;;;;;;5155218;27;20034;-75
2021/08/11 06:44:47;;;;;;;13.15;7.22;;;692.10;1766.40;;;;;;5154587;27;20388;-80
2021/08/11 06:47:13;;;;;;;12.43;8.60;;;716.80;1766.40;;;;;;5155330;27;20067;-78
2021/08/11 06:49:38;;;;;;;13.77;7.82;;;716.90;1740.80;;;;;;5154810;27;20071;-77
2021/08/11 06:52:04;;;;;;;11.32;8.27;;;717.00;1740.80;;;;;;5154845;27;20030;-79
2021/08/11 06:54:30;;;;;;;12.88;7.40;;;717.10;1715.20;;;;;;5155102;27;20029;-80
2021/08/11 06:56:56;;;;;;;8.27;6.10;;;717.20;1715.20;;;;;;5153557;27;20425;-75
2021/08/11 06:59:21;;;;;;;10.57;6.25;;;717.30;1715.20;;;;;;5148480;27;20027;-78
2021/08/11 07:01:47;;;;;;;11.95;6.90;;;717.30;1689.60;;;;;;5153010;27;20019;-74
2021/08/11 07:04:13;;;;;;;11.52;8.35;;;717.40;1664.00;;;;;;5154258;27;20033;-75
2021/08/11 07:06:40;;;;;;;12.18;7.90;;;717.60;1715.20;;;;;;5154180;27;20026;-76
2021/08/11 07:09:08;;;;;;;10.43;7.38;;;717.70;1664.00;;;;;;5153630;27;20464;-75
2021/08/11 07:11:34;;;;;;;10.73;8.82;;;742.40;1689.60;;;;;;5154454;27;20027;-75
2021/08/11 07:14:00;;;;;;;7.93;6.43;;;742.50;1664.00;;;;;;5154183;27;20033;-74
2021/08/11 07:16:25;;;;;;;14.57;7.65;;;742.50;1689.60;;;;;;5154476;27;20027;-77
2021/08/11 07:18:51;;;;;;;10.07;6.63;;;742.70;1664.00;;;;;;5154259;27;20023;-76
2021/08/11 07:21:17;;;;;;;11.50;6.50;;;742.80;1689.60;;;;;;5135468;27;20109;-76
2021/08/11 07:23:43;;;;;;;10.15;5.57;;;742.90;1587.20;;;;;;5153845;27;20042;-74
2021/08/11 07:26:09;;;;;;;11.07;7.00;;;742.90;1612.80;;;;;;5154256;27;20543;-75
2021/08/11 07:28:35;;;;;;;10.27;6.25;;;743.10;1587.20;;;;;;5154096;27;20018;-77
2021/08/11 07:31:01;;;;;;;13.35;6.60;;;743.10;1587.20;;;;;;5154191;27;20027;-74
2021/08/11 07:33:26;;;;;;;9.63;6.60;;;743.30;1561.60;;;;;;5154349;27;20067;-75
2021/08/11 07:35:53;;;;;;;11.98;5.72;;;743.30;1536.00;;;;;;5154221;27;20467;-74
2021/08/11 07:38:19;;;;;;;8.77;6.25;;;768.10;1536.00;;;;;;5153971;27;20019;-77
2021/08/11 07:40:45;;;;;;;9.77;6.47;;;768.20;1510.40;;;;;;5153691;27;20035;-80
2021/08/11 07:43:11;;;;;;;7.68;6.00;;;768.20;1561.60;;;;;;5154239;27;20023;-74
2021/08/11 07:45:37;;;;;;;10.35;6.20;;;768.30;1561.60;;;;;;5154081;27;20034;-75
2021/08/11 07:48:04;;;;;;;6.97;5.32;;;768.40;1536.00;;;;;;5154038;27;20027;-75
2021/08/11 07:50:33;;;;;;;8.15;5.13;;;768.50;1536.00;;;;;;5154156;27;20074;-77
2021/08/11 07:52:59;;;;;;;11.60;5.57;;;768.50;1536.00;;;;;;5153699;27;20027;-74
2021/08/11 07:55:25;;;;;;;11.48;5.50;;;768.70;1536.00;;;;;;5153892;27;20075;-77
2021/08/11 07:57:51;;;;;;;11.75;5.43;;;768.90;1536.00;;;;;;5153497;27;20023;-75
2021/08/11 08:00:19;;;;;;;5.85;4.72;;;768.90;1484.80;;;;;;5153915;27;20110;-75
2021/08/11 08:02:45;;;;;;;8.77;4.97;;;793.60;1510.40;;;;;;5153741;27;20010;-75
2021/08/11 08:05:12;;;;;;;7.60;4.53;;;793.60;1536.00;;;;;;5153726;27;20467;-74
2021/08/11 08:07:38;;;;;;;8.55;5.80;;;793.70;1510.40;;;;;;5153517;27;20053;-75
2021/08/11 08:10:05;;;;;;;7.82;4.95;;;793.70;1536.00;;;;;;5150568;27;20107;-75
2021/08/11 08:12:31;;;;;;;9.60;4.65;;;794.00;1510.40;;;;;;5134756;27;20023;-74
2021/08/11 08:14:57;;;;;;;8.30;5.15;;;794.00;1484.80;;;;;;5153528;27;20029;-74
2021/08/11 08:17:22;;;;;;;8.57;4.03;;;794.10;1459.20;;;;;;5153893;27;20413;-76
2021/08/11 08:19:48;;;;;;;11.52;4.07;;;794.00;1382.40;;;;;;5156388;27;20035;-75
2021/08/11 08:22:17;;;;;;;5.82;3.83;;;794.10;1433.60;;;;;;5157280;27;20015;-75
2021/08/11 08:24:46;;;;;;;7.40;4.00;;;794.20;1433.60;;;;;;5157282;27;20510;-76
2021/08/11 08:27:12;;;;;;;8.02;4.53;;;794.20;1408.00;;;;;;5157572;27;20063;-77
2021/08/11 08:29:38;;;;;;;6.65;3.67;;;794.40;1382.40;;;;;;5157328;27;20026;-76
2021/08/11 08:32:04;;;;;;;7.78;3.70;;;794.50;1382.40;;;;;;5157523;27;20865;-75
2021/08/11 08:34:30;;;;;;;8.63;3.72;;;794.50;1356.80;;;;;;5156568;27;20030;-75
2021/08/11 08:36:55;;;;;;;5.45;3.78;;;794.50;1356.80;;;;;;5155438;27;20035;-74
2021/08/11 08:39:21;;;;;;;6.90;3.80;;;819.20;1331.20;;;;;;5154607;27;20034;-76
2021/08/11 08:41:48;;;;;;;5.53;3.67;;;819.30;1331.20;;;;;;5156998;27;20030;-75
2021/08/11 08:44:14;;;;;;;7.82;3.55;;;819.30;1305.60;;;;;;5156804;27;20369;-78
2021/08/11 08:46:43;;;;;;;9.40;3.65;;;819.30;1305.60;;;;;;5156535;27;20038;-77
2021/08/11 08:49:10;;;;;;;6.57;3.95;;;819.40;1331.20;;;;;;5156228;27;20019;-75
2021/08/11 08:51:48;;;;;;;9.77;4.55;;;819.40;1305.60;;;;;;5156573;27;20523;-75
2021/08/11 08:54:23;;;;;;;8.30;4.35;;;819.50;1305.60;;;;;;5148582;27;20068;-76
2021/08/11 08:56:49;;;;;;;6.55;3.63;;;819.60;1254.40;;;;;;5155076;27;20476;-76
2021/08/11 08:59:14;;;;;;;6.28;3.97;;;819.60;1254.40;;;;;;5156073;27;20065;-77
2021/08/11 09:01:40;;;;;;;6.20;4.03;;;819.60;1305.60;;;;;;5156384;27;20067;-74
2021/08/11 09:04:06;;;;;;;7.43;3.88;;;819.60;1280.00;;;;;;5156485;27;20382;-75
2021/08/11 09:06:33;;;;;;;6.45;4.07;;;819.60;1280.00;;;;;;5156791;27;20019;-75
2021/08/11 09:09:10;;;;;;;10.50;3.80;;;819.80;1254.40;;;;;;5156531;27;20022;-75
2021/08/11 09:11:38;;;;;;;5.38;3.90;;;819.80;1280.00;;;;;;5156837;27;20056;-74
2021/08/11 09:14:26;;;;;;;5.63;3.60;;;819.80;1280.00;;;;;;5156237;27;20079;-74
2021/08/11 09:16:58;;;;;;;7.10;3.70;;;819.90;1228.80;;;;;;5156174;27;20039;-75
2021/08/11 09:19:35;;;;;;;5.65;3.58;;;819.90;1228.80;;;;;;5156627;27;20027;-75
2021/08/11 09:22:01;;;;;;;6.43;3.30;;;820.10;1203.20;;;;;;5137665;27;20023;-74
2021/08/11 09:24:29;;;;;;;5.30;3.33;;;820.10;1177.60;;;;;;5155863;27;20039;-74
2021/08/11 09:26:55;;;;;;;6.20;3.42;;;844.80;1177.60;;;;;;5155618;27;20021;-74
2021/08/11 09:29:22;;;;;;;4.22;3.28;;;844.90;1152.00;;;;;;5155795;27;20015;-75
2021/08/11 09:31:48;;;;;;;5.95;4.05;;;845.00;1177.60;;;;;;5155276;27;20050;-75
2021/08/11 09:34:13;;;;;;;6.35;3.70;;;845.00;1177.60;;;;;;5155695;27;20424;-75
2021/08/11 09:36:51;;;;;;;6.32;3.20;;;845.20;1100.80;;;;;;5155370;27;20033;-75
2021/08/11 09:39:18;;;;;;;4.07;3.10;;;845.30;1100.80;;;;;;5154706;27;20029;-75
2021/08/11 09:41:58;;;;;;;4.88;3.35;;;845.30;1049.60;;;;;;5155687;27;20081;-76
2021/08/11 09:44:24;;;;;;;5.78;3.55;;;845.40;1075.20;;;;;;5154175;27;20026;-75
2021/08/11 09:46:50;;;;;;;10.77;3.85;;;845.60;1075.20;;;;;;5155563;27;20023;-76
2021/08/11 09:49:25;;;;;;;8.00;3.60;;;845.70;1075.20;;;;;;5155494;27;20377;-75
2021/08/11 09:51:58;;;;;;;7.53;3.75;;;870.50;998.40;;;;;;5153540;27;20107;-74
2021/08/11 09:54:25;;;;;;;4.68;3.17;;;870.60;1024.00;;;;;;5155674;27;20046;-74
2021/08/11 09:56:50;;;;;;;5.15;3.70;;;870.70;1024.00;;;;;;5155170;27;20498;-74
2021/08/11 09:59:16;;;;;;;5.72;3.50;;;870.80;998.40;;;;;;5155354;27;20027;-74
2021/08/11 10:01:42;;;;;;;4.63;3.25;;;870.90;972.80;;;;;;5155642;27;20050;-75
2021/08/11 10:04:09;;;;;;;6.97;4.18;;;871.00;972.80;;;;;;5155602;27;20483;-75
2021/08/11 10:06:35;;;;;;;5.55;3.72;;;871.20;947.20;;;;;;5155720;27;20548;-76
2021/08/11 10:09:11;;;;;;;6.88;3.63;;;871.20;921.60;;;;;;5155160;27;20030;-74
2021/08/11 10:11:39;;;;;;;6.05;3.80;;;871.30;921.60;;;;;;5154554;27;20025;-77
2021/08/11 10:14:08;;;;;;;6.20;4.10;;;896.00;896.00;;;;;;5154889;27;20476;-78
2021/08/11 10:16:35;;;;;;;8.68;3.75;;;896.20;896.00;;;;;;5155171;27;20023;-77
2021/08/11 10:19:04;;;;;;;7.38;3.58;;;896.20;870.40;;;;;;5154851;27;20023;-77
2021/08/11 10:21:33;;;;;;;6.13;3.83;;;896.50;921.60;;;;;;5154745;27;20502;-78
2021/08/11 10:24:00;;;;;;;8.10;4.13;;;896.60;921.60;;;;;;5154695;27;20035;-75
2021/08/11 10:26:28;;;;;;;6.50;4.10;;;896.90;921.60;;;;;;5152293;27;20026;-75
2021/08/11 10:28:54;;;;;;;7.78;3.63;;;896.70;844.80;;;;;;5152561;27;20015;-75
2021/08/11 10:31:21;;;;;;;5.55;3.95;;;896.70;870.40;;;;;;5153504;27;20019;-76
2021/08/11 10:33:49;;;;;;;5.43;3.92;;;896.90;870.40;;;;;;5154223;27;20015;-75
2021/08/11 10:36:15;;;;;;;8.60;3.90;;;921.70;870.40;;;;;;5154469;27;20026;-75
2021/08/11 10:38:45;;;;;;;7.18;4.18;;;896.90;844.80;;;;;;5154024;27;20034;-76
2021/08/11 10:41:15;;;;;;;5.43;3.22;;;921.70;870.40;;;;;;5154156;27;20037;-75
2021/08/11 10:43:43;;;;;;;5.32;3.72;;;921.80;870.40;;;;;;5153885;27;20023;-75
2021/08/11 10:46:14;;;;;;;5.93;3.92;;;921.80;819.20;;;;;;5155105;27;20095;-76
2021/08/11 10:48:41;;;;;;;6.00;4.18;;;922.00;819.20;;;;;;5154668;27;20025;-75
2021/08/11 10:51:07;;;;;;;5.93;3.88;;;922.00;844.80;;;;;;5153433;27;20015;-76
2021/08/11 10:53:33;;;;;;;10.60;3.88;;;922.00;844.80;;;;;;5154758;27;20015;-76
2021/08/11 10:55:59;;;;;;;5.93;3.30;;;922.00;819.20;;;;;;5135485;27;20361;-76
2021/08/11 10:58:44;;;;;;;5.88;4.50;;;922.00;793.60;;;;;;5154341;27;20058;-76
2021/08/11 11:01:35;;;;;;;6.77;3.97;;;922.00;793.60;;;;;;5150409;27;20031;-75
2021/08/11 11:04:02;;;;;;;5.15;3.75;;;922.00;742.40;;;;;;5154041;27;20102;-74
2021/08/11 11:06:50;;;;;;;7.95;4.18;;;922.30;768.00;;;;;;5154710;27;20480;-75
2021/08/11 11:09:18;;;;;;;5.45;4.03;;;922.30;819.20;;;;;;5138880;27;20018;-76
2021/08/11 11:11:45;;;;;;;5.70;3.92;;;922.50;819.20;;;;;;5154289;27;20027;-76
2021/08/11 11:14:46;;;;;;;4.80;3.70;;;922.50;768.00;;;;;;5154257;27;20031;-78
2021/08/11 11:17:13;;;;;;;5.63;3.75;;;922.50;716.80;;;;;;5115283;27;20402;-76
2021/08/11 11:20:04;;;;;;;7.10;4.05;;;922.50;768.00;;;;;;5154427;27;20062;-76
2021/08/11 11:22:38;;;;;;;6.72;4.07;;;947.20;793.60;;;;;;5154411;27;20029;-78
2021/08/11 11:25:09;;;;;;;6.15;3.85;;;922.40;819.20;;;;;;5153760;27;20117;-76
2021/08/11 11:27:44;;;;;;;6.03;3.85;;;922.20;844.80;;;;;;5154396;27;20011;-76
2021/08/11 11:30:13;;;;;;;7.25;3.95;;;921.60;844.80;;;;;;5149927;27;20035;-75
2021/08/11 11:32:39;;;;;;;6.60;4.22;;;922.10;870.40;;;;;;5131427;27;20222;-75
2021/08/11 11:35:15;;;;;;;5.57;4.00;;;922.20;793.60;;;;;;5154139;27;20063;-74
2021/08/11 11:37:42;;;;;;;5.90;3.97;;;922.50;793.60;;;;;;5154063;27;20015;-75
2021/08/11 11:40:10;;;;;;;6.32;4.57;;;922.50;742.40;;;;;;5153965;27;20512;-75
2021/08/11 11:42:37;;;;;;;6.45;4.43;;;922.50;768.00;;;;;;5135008;27;20031;-75
2021/08/11 11:45:06;;;;;;;5.35;3.85;;;922.30;819.20;;;;;;5153526;27;20026;-78
2021/08/11 11:47:37;;;;;;;5.53;3.60;;;922.50;793.60;;;;;;5154360;27;20535;-76
2021/08/11 11:50:32;;;;;;;5.35;4.00;;;922.50;793.60;;;;;;5148631;27;20035;-76
2021/08/11 11:53:06;;;;;;;5.32;3.65;;;947.40;793.60;;;;;;5153877;27;20019;-77
2021/08/11 11:55:32;;;;;;;5.68;3.78;;;947.60;793.60;;;;;;5157869;27;20019;-76
2021/08/11 11:58:02;;;;;;;12.07;4.50;;;947.40;742.40;;;;;;5157946;27;20045;-76
2021/08/11 12:00:29;;;;;;;5.88;3.90;;;947.60;793.60;;;;;;5158187;27;20114;-77
2021/08/11 12:02:55;;;;;;;5.85;4.18;;;947.40;768.00;;;;;;5157763;27;20018;-76
2021/08/11 12:05:22;;;;;;;7.25;4.32;;;947.50;742.40;;;;;;5157922;27;20019;-76
2021/08/11 12:07:48;;;;;;;6.93;4.28;;;922.50;768.00;;;;;;5157535;27;20097;-76
2021/08/11 12:10:26;;;;;;;8.02;4.03;;;922.40;793.60;;;;;;5157496;27;20019;-76
2021/08/11 12:13:04;;;;;;;6.93;4.28;;;922.50;768.00;;;;;;5155410;27;20019;-79
2021/08/11 12:15:33;;;;;;;6.93;3.80;;;947.20;768.00;;;;;;5156988;27;20057;-76
2021/08/11 12:18:11;;;;;;;6.22;3.55;;;947.20;768.00;;;;;;5157177;27;20099;-76